sensor_id;sensor_type;location;lat;lon;timestamp;pressure;altitude;pressure_sealevel;temperature;humidity
7824;BME280;3957;48.61947800;9.05303100;2024-02-21T00:00:33;97026.88;;;3.53;100.00
7824;BME280;3957;48.61947800;9.05303100;2024-02-21T00:01:35;97025.06;;;3.63;100.00
7824;BME280;3957;48.61947800;9.05303100;2024-02-21T00:02:37;97027.59;;;3.55;100.00
7824;BME280;3957;48.61947800;9.05303100;2024-02-21T00:03:38;97029.81;;;3.50;100.00
7824;BME280;3957;48.61947800;9.05303100;2024-02-21T00:04:43;97026.44;;;3.48;100.00
7824;BME280;3957;48.61947800;9.05303100;2024-02-21T00:05:45;97032.00;;;3.45;100.00
7824;BME280;3957;48.61947800;9.05303100;2024-02-21T00:06:46;97035.22;;;3.48;100.00
7824;BME280;3957;48.61947800;9.05303100;2024-02-21T00:07:48;97030.78;;;3.58;100.00
7824;BME280;3957;48.61947800;9.05303100;2024-02-21T00:08:49;97027.31;;;3.58;100.00
7824;BME280;3957;48.61947800;9.05303100;2024-02-21T00:09:51;97022.81;;;3.49;100.00
7824;BME280;3957;48.61947800;9.05303100;2024-02-21T00:10:53;97015.59;;;3.51;100.00
7824;BME280;3957;48.61947800;9.05303100;2024-02-21T00:11:54;97016.72;;;3.48;100.00
7824;BME280;3957;48.61947800;9.05303100;2024-02-21T00:12:56;97021.56;;;3.43;100.00
7824;BME280;3957;48.61947800;9.05303100;2024-02-21T00:13:57;97020.75;;;3.43;100.00
7824;BME280;3957;48.61947800;9.05303100;2024-02-21T00:14:59;97023.63;;;3.39;100.00
7824;BME280;3957;48.61947800;9.05303100;2024-02-21T00:16:01;97023.25;;;3.44;100.00
7824;BME280;3957;48.61947800;9.05303100;2024-02-21T00:17:03;97022.25;;;3.45;100.00
7824;BME280;3957;48.61947800;9.05303100;2024-02-21T00:18:04;97026.84;;;3.43;100.00
7824;BME280;3957;48.61947800;9.05303100;2024-02-21T00:19:06;97025.75;;;3.46;100.00
7824;BME280;3957;48.61947800;9.05303100;2024-02-21T00:20:08;97030.59;;;3.40;100.00
7824;BME280;3957;48.61947800;9.05303100;2024-02-21T00:21:10;97021.56;;;3.43;100.00
7824;BME280;3957;48.61947800;9.05303100;2024-02-21T00:22:16;97023.25;;;3.54;100.00
7824;BME280;3957;48.61947800;9.05303100;2024-02-21T00:23:18;97019.66;;;3.55;100.00
7824;BME280;3957;48.61947800;9.05303100;2024-02-21T00:24:19;97015.75;;;3.59;100.00
7824;BME280;3957;48.61947800;9.05303100;2024-02-21T00:25:20;97012.84;;;3.62;100.00
7824;BME280;3957;48.61947800;9.05303100;2024-02-21T00:26:22;97002.38;;;3.51;100.00
7824;BME280;3957;48.61947800;9.05303100;2024-02-21T00:27:24;97006.53;;;3.53;100.00
7824;BME280;3957;48.61947800;9.05303100;2024-02-21T00:28:25;97004.03;;;3.52;100.00
7824;BME280;3957;48.61947800;9.05303100;2024-02-21T00:29:27;97004.75;;;3.54;100.00
7824;BME280;3957;48.61947800;9.05303100;2024-02-21T00:30:28;96999.16;;;3.47;100.00
7824;BME280;3957;48.61947800;9.05303100;2024-02-21T00:31:30;96997.63;;;3.45;100.00
7824;BME280;3957;48.61947800;9.05303100;2024-02-21T00:32:32;96990.78;;;3.42;100.00
7824;BME280;3957;48.61947800;9.05303100;2024-02-21T00:33:36;96979.66;;;3.38;100.00
7824;BME280;3957;48.61947800;9.05303100;2024-02-21T00:34:37;96983.81;;;3.41;100.00
7824;BME280;3957;48.61947800;9.05303100;2024-02-21T00:35:39;96979.91;;;3.45;100.00
7824;BME280;3957;48.61947800;9.05303100;2024-02-21T00:36:40;96981.59;;;3.46;100.00
7824;BME280;3957;48.61947800;9.05303100;2024-02-21T00:37:42;96986.34;;;3.43;100.00
7824;BME280;3957;48.61947800;9.05303100;2024-02-21T00:38:45;96984.66;;;3.32;100.00
7824;BME280;3957;48.61947800;9.05303100;2024-02-21T00:39:47;96988.84;;;3.34;100.00
7824;BME280;3957;48.61947800;9.05303100;2024-02-21T00:40:48;96987.00;;;3.35;100.00
7824;BME280;3957;48.61947800;9.05303100;2024-02-21T00:41:50;96988.25;;;3.31;100.00
7824;BME280;3957;48.61947800;9.05303100;2024-02-21T00:42:51;96994.66;;;3.28;100.00
7824;BME280;3957;48.61947800;9.05303100;2024-02-21T00:43:53;96995.91;;;3.24;100.00
7824;BME280;3957;48.61947800;9.05303100;2024-02-21T00:44:54;96998.00;;;3.20;100.00
7824;BME280;3957;48.61947800;9.05303100;2024-02-21T00:45:56;96998.00;;;3.30;100.00
7824;BME280;3957;48.61947800;9.05303100;2024-02-21T00:46:57;96991.72;;;3.31;100.00
7824;BME280;3957;48.61947800;9.05303100;2024-02-21T00:47:59;96996.88;;;3.33;100.00
7824;BME280;3957;48.61947800;9.05303100;2024-02-21T00:49:01;96990.47;;;3.35;100.00
7824;BME280;3957;48.61947800;9.05303100;2024-02-21T00:50:02;96988.13;;;3.32;100.00
7824;BME280;3957;48.61947800;9.05303100;2024-02-21T00:51:08;96996.06;;;3.32;100.00
7824;BME280;3957;48.61947800;9.05303100;2024-02-21T00:52:09;96983.56;;;3.44;100.00
7824;BME280;3957;48.61947800;9.05303100;2024-02-21T00:53:11;96980.47;;;3.39;100.00
7824;BME280;3957;48.61947800;9.05303100;2024-02-21T00:54:12;96983.81;;;3.41;100.00
7824;BME280;3957;48.61947800;9.05303100;2024-02-21T00:55:14;96981.16;;;3.41;100.00
7824;BME280;3957;48.61947800;9.05303100;2024-02-21T00:56:16;96980.06;;;3.44;100.00
7824;BME280;3957;48.61947800;9.05303100;2024-02-21T00:57:17;96974.63;;;3.45;100.00
7824;BME280;3957;48.61947800;9.05303100;2024-02-21T00:58:19;96977.28;;;3.45;100.00
7824;BME280;3957;48.61947800;9.05303100;2024-02-21T00:59:20;96975.75;;;3.43;100.00
7824;BME280;3957;48.61947800;9.05303100;2024-02-21T01:00:22;96981.47;;;3.48;100.00
7824;BME280;3957;48.61947800;9.05303100;2024-02-21T01:01:24;96978.56;;;3.61;100.00
7824;BME280;3957;48.61947800;9.05303100;2024-02-21T01:02:26;96977.03;;;3.48;100.00
7824;BME280;3957;48.61947800;9.05303100;2024-02-21T01:03:28;96977.41;;;3.44;100.00
7824;BME280;3957;48.61947800;9.05303100;2024-02-21T01:04:30;96978.25;;;3.34;100.00
7824;BME280;3957;48.61947800;9.05303100;2024-02-21T01:05:31;96975.88;;;3.41;100.00
7824;BME280;3957;48.61947800;9.05303100;2024-02-21T01:06:33;96974.38;;;3.38;100.00
7824;BME280;3957;48.61947800;9.05303100;2024-02-21T01:07:35;96980.63;;;3.37;100.00
7824;BME280;3957;48.61947800;9.05303100;2024-02-21T01:08:36;96968.50;;;3.35;100.00
7824;BME280;3957;48.61947800;9.05303100;2024-02-21T01:09:38;96982.00;;;3.32;100.00
7824;BME280;3957;48.61947800;9.05303100;2024-02-21T01:10:39;96975.16;;;3.29;100.00
7824;BME280;3957;48.61947800;9.05303100;2024-02-21T01:11:41;96966.53;;;3.27;100.00
7824;BME280;3957;48.61947800;9.05303100;2024-02-21T01:12:43;96968.63;;;3.33;100.00
7824;BME280;3957;48.61947800;9.05303100;2024-02-21T01:13:44;96968.91;;;3.30;100.00
7824;BME280;3957;48.61947800;9.05303100;2024-02-21T01:14:46;96969.75;;;3.31;100.00
7824;BME280;3957;48.61947800;9.05303100;2024-02-21T01:15:48;96966.97;;;3.42;100.00
7824;BME280;3957;48.61947800;9.05303100;2024-02-21T01:16:49;96962.50;;;3.33;100.00
7824;BME280;3957;48.61947800;9.05303100;2024-02-21T01:17:51;96958.75;;;3.35;100.00
7824;BME280;3957;48.61947800;9.05303100;2024-02-21T01:18:56;96953.59;;;3.34;100.00
7824;BME280;3957;48.61947800;9.05303100;2024-02-21T01:19:58;96957.91;;;3.35;100.00
7824;BME280;3957;48.61947800;9.05303100;2024-02-21T01:20:59;96951.50;;;3.28;100.00
7824;BME280;3957;48.61947800;9.05303100;2024-02-21T01:22:01;96942.03;;;3.25;100.00
7824;BME280;3957;48.61947800;9.05303100;2024-02-21T01:23:03;96943.00;;;3.24;100.00
7824;BME280;3957;48.61947800;9.05303100;2024-02-21T01:24:04;96937.56;;;3.26;100.00
7824;BME280;3957;48.61947800;9.05303100;2024-02-21T01:25:06;96941.09;;;3.46;100.00
7824;BME280;3957;48.61947800;9.05303100;2024-02-21T01:26:08;96936.19;;;3.41;100.00
7824;BME280;3957;48.61947800;9.05303100;2024-02-21T01:27:10;96937.03;;;3.42;100.00
7824;BME280;3957;48.61947800;9.05303100;2024-02-21T01:28:11;96936.03;;;3.33;100.00
7824;BME280;3957;48.61947800;9.05303100;2024-02-21T01:29:13;96937.34;;;3.48;100.00
7824;BME280;3957;48.61947800;9.05303100;2024-02-21T01:30:15;96932.84;;;3.39;100.00
7824;BME280;3957;48.61947800;9.05303100;2024-02-21T01:31:16;96925.06;;;3.47;100.00
7824;BME280;3957;48.61947800;9.05303100;2024-02-21T01:32:18;96920.31;;;3.41;100.00
7824;BME280;3957;48.61947800;9.05303100;2024-02-21T01:33:19;96920.59;;;3.38;100.00
7824;BME280;3957;48.61947800;9.05303100;2024-02-21T01:34:21;96911.69;;;3.49;100.00
7824;BME280;3957;48.61947800;9.05303100;2024-02-21T01:35:23;96910.31;;;3.54;100.00
7824;BME280;3957;48.61947800;9.05303100;2024-02-21T01:36:24;96910.72;;;3.50;100.00
7824;BME280;3957;48.61947800;9.05303100;2024-02-21T01:37:26;96911.69;;;3.49;100.00
7824;BME280;3957;48.61947800;9.05303100;2024-02-21T01:38:28;96912.13;;;3.44;100.00
7824;BME280;3957;48.61947800;9.05303100;2024-02-21T01:39:30;96906.97;;;3.43;100.00
7824;BME280;3957;48.61947800;9.05303100;2024-02-21T01:40:32;96902.50;;;3.43;100.00
7824;BME280;3957;48.61947800;9.05303100;2024-02-21T01:41:33;96910.88;;;3.48;100.00
7824;BME280;3957;48.61947800;9.05303100;2024-02-21T01:42:39;96908.91;;;3.50;100.00
7824;BME280;3957;48.61947800;9.05303100;2024-02-21T01:43:42;96910.44;;;3.43;100.00
7824;BME280;3957;48.61947800;9.05303100;2024-02-21T01:44:43;96908.91;;;3.40;100.00
7824;BME280;3957;48.61947800;9.05303100;2024-02-21T01:45:49;96910.72;;;3.30;100.00
7824;BME280;3957;48.61947800;9.05303100;2024-02-21T01:46:52;96911.28;;;3.44;100.00
7824;BME280;3957;48.61947800;9.05303100;2024-02-21T01:47:54;96904.03;;;3.46;100.00
7824;BME280;3957;48.61947800;9.05303100;2024-02-21T01:48:56;96905.72;;;3.47;100.00
7824;BME280;3957;48.61947800;9.05303100;2024-02-21T01:49:59;96894.56;;;3.43;100.00
7824;BME280;3957;48.61947800;9.05303100;2024-02-21T01:51:02;96901.69;;;3.43;100.00
7824;BME280;3957;48.61947800;9.05303100;2024-02-21T01:52:05;96895.41;;;3.44;100.00
7824;BME280;3957;48.61947800;9.05303100;2024-02-21T01:53:07;96898.19;;;3.42;100.00
7824;BME280;3957;48.61947800;9.05303100;2024-02-21T01:54:10;96897.63;;;3.29;100.00
7824;BME280;3957;48.61947800;9.05303100;2024-02-21T01:55:14;96894.28;;;3.27;100.00
7824;BME280;3957;48.61947800;9.05303100;2024-02-21T01:56:17;96897.75;;;3.27;100.00
7824;BME280;3957;48.61947800;9.05303100;2024-02-21T01:57:18;96891.91;;;3.23;100.00
7824;BME280;3957;48.61947800;9.05303100;2024-02-21T01:58:20;96896.25;;;3.25;100.00
7824;BME280;3957;48.61947800;9.05303100;2024-02-21T01:59:22;96885.78;;;3.33;100.00
7824;BME280;3957;48.61947800;9.05303100;2024-02-21T02:00:25;96887.06;;;3.29;100.00
7824;BME280;3957;48.61947800;9.05303100;2024-02-21T02:01:26;96883.97;;;3.23;100.00
7824;BME280;3957;48.61947800;9.05303100;2024-02-21T02:02:29;96881.78;;;3.29;100.00
7824;BME280;3957;48.61947800;9.05303100;2024-02-21T02:03:31;96878.97;;;3.30;100.00
7824;BME280;3957;48.61947800;9.05303100;2024-02-21T02:04:33;96870.47;;;3.27;100.00
7824;BME280;3957;48.61947800;9.05303100;2024-02-21T02:05:36;96871.03;;;3.20;100.00
7824;BME280;3957;48.61947800;9.05303100;2024-02-21T02:06:37;96866.00;;;3.27;100.00
7824;BME280;3957;48.61947800;9.05303100;2024-02-21T02:07:39;96863.50;;;3.26;100.00
7824;BME280;3957;48.61947800;9.05303100;2024-02-21T02:08:42;96861.97;;;3.23;100.00
7824;BME280;3957;48.61947800;9.05303100;2024-02-21T02:09:43;96866.72;;;3.19;100.00
7824;BME280;3957;48.61947800;9.05303100;2024-02-21T02:10:45;96862.53;;;3.27;100.00
7824;BME280;3957;48.61947800;9.05303100;2024-02-21T02:11:47;96859.19;;;3.15;100.00
7824;BME280;3957;48.61947800;9.05303100;2024-02-21T02:12:49;96861.16;;;3.22;100.00
7824;BME280;3957;48.61947800;9.05303100;2024-02-21T02:13:51;96864.22;;;3.28;100.00
7824;BME280;3957;48.61947800;9.05303100;2024-02-21T02:15:00;96864.75;;;3.21;100.00
7824;BME280;3957;48.61947800;9.05303100;2024-02-21T02:16:02;96868.25;;;3.22;100.00
7824;BME280;3957;48.61947800;9.05303100;2024-02-21T02:17:03;96859.06;;;3.26;100.00
7824;BME280;3957;48.61947800;9.05303100;2024-02-21T02:18:05;96857.25;;;3.27;100.00
7824;BME280;3957;48.61947800;9.05303100;2024-02-21T02:19:07;96864.06;;;3.29;100.00
7824;BME280;3957;48.61947800;9.05303100;2024-02-21T02:20:13;96852.25;;;3.23;100.00
7824;BME280;3957;48.61947800;9.05303100;2024-02-21T02:21:25;96857.41;;;3.25;100.00
7824;BME280;3957;48.61947800;9.05303100;2024-02-21T02:22:29;96848.06;;;3.31;100.00
7824;BME280;3957;48.61947800;9.05303100;2024-02-21T02:23:31;96848.63;;;3.25;100.00
7824;BME280;3957;48.61947800;9.05303100;2024-02-21T02:24:33;96843.34;;;3.25;100.00
7824;BME280;3957;48.61947800;9.05303100;2024-02-21T02:25:35;96845.28;;;3.22;100.00
7824;BME280;3957;48.61947800;9.05303100;2024-02-21T02:26:37;96832.75;;;3.34;100.00
7824;BME280;3957;48.61947800;9.05303100;2024-02-21T02:27:42;96832.88;;;3.33;100.00
7824;BME280;3957;48.61947800;9.05303100;2024-02-21T02:28:45;96831.38;;;3.30;100.00
7824;BME280;3957;48.61947800;9.05303100;2024-02-21T02:29:47;96831.50;;;3.29;100.00
7824;BME280;3957;48.61947800;9.05303100;2024-02-21T02:30:49;96828.44;;;3.33;100.00
7824;BME280;3957;48.61947800;9.05303100;2024-02-21T02:31:51;96831.75;;;3.35;100.00
7824;BME280;3957;48.61947800;9.05303100;2024-02-21T02:32:52;96835.25;;;3.36;100.00
7824;BME280;3957;48.61947800;9.05303100;2024-02-21T02:33:54;96828.56;;;3.42;100.00
7824;BME280;3957;48.61947800;9.05303100;2024-02-21T02:34:56;96825.50;;;3.36;100.00
7824;BME280;3957;48.61947800;9.05303100;2024-02-21T02:35:58;96824.38;;;3.39;100.00
7824;BME280;3957;48.61947800;9.05303100;2024-02-21T02:37:00;96824.81;;;3.44;100.00
7824;BME280;3957;48.61947800;9.05303100;2024-02-21T02:38:02;96829.00;;;3.47;100.00
7824;BME280;3957;48.61947800;9.05303100;2024-02-21T02:39:04;96819.91;;;3.49;100.00
7824;BME280;3957;48.61947800;9.05303100;2024-02-21T02:40:07;96817.16;;;3.51;100.00
7824;BME280;3957;48.61947800;9.05303100;2024-02-21T02:41:08;96823.13;;;3.43;100.00
7824;BME280;3957;48.61947800;9.05303100;2024-02-21T02:42:10;96819.78;;;3.51;100.00
7824;BME280;3957;48.61947800;9.05303100;2024-02-21T02:43:11;96828.28;;;3.54;100.00
7824;BME280;3957;48.61947800;9.05303100;2024-02-21T02:44:13;96818.25;;;3.48;100.00
7824;BME280;3957;48.61947800;9.05303100;2024-02-21T02:45:15;96823.00;;;3.45;100.00
7824;BME280;3957;48.61947800;9.05303100;2024-02-21T02:46:17;96815.63;;;3.38;100.00
7824;BME280;3957;48.61947800;9.05303100;2024-02-21T02:47:18;96811.16;;;3.39;100.00
7824;BME280;3957;48.61947800;9.05303100;2024-02-21T02:48:21;96808.50;;;3.49;100.00
7824;BME280;3957;48.61947800;9.05303100;2024-02-21T02:49:22;96803.91;;;3.51;100.00
7824;BME280;3957;48.61947800;9.05303100;2024-02-21T02:50:25;96802.25;;;3.50;100.00
7824;BME280;3957;48.61947800;9.05303100;2024-02-21T02:51:26;96804.31;;;3.46;100.00
7824;BME280;3957;48.61947800;9.05303100;2024-02-21T02:52:28;96808.38;;;3.40;100.00
7824;BME280;3957;48.61947800;9.05303100;2024-02-21T02:53:29;96812.81;;;3.50;100.00
7824;BME280;3957;48.61947800;9.05303100;2024-02-21T02:54:31;96809.22;;;3.51;100.00
7824;BME280;3957;48.61947800;9.05303100;2024-02-21T02:55:33;96800.53;;;3.58;100.00
7824;BME280;3957;48.61947800;9.05303100;2024-02-21T02:56:34;96797.22;;;3.56;100.00
7824;BME280;3957;48.61947800;9.05303100;2024-02-21T02:57:36;96790.41;;;3.54;100.00
7824;BME280;3957;48.61947800;9.05303100;2024-02-21T02:58:37;96784.25;;;3.53;100.00
7824;BME280;3957;48.61947800;9.05303100;2024-02-21T02:59:39;96781.59;;;3.53;100.00
7824;BME280;3957;48.61947800;9.05303100;2024-02-21T03:00:41;96779.97;;;3.52;100.00
7824;BME280;3957;48.61947800;9.05303100;2024-02-21T03:01:42;96788.56;;;3.54;100.00
7824;BME280;3957;48.61947800;9.05303100;2024-02-21T03:02:46;96776.19;;;3.55;100.00
7824;BME280;3957;48.61947800;9.05303100;2024-02-21T03:03:47;96788.56;;;3.64;100.00
7824;BME280;3957;48.61947800;9.05303100;2024-02-21T03:04:49;96771.88;;;3.54;100.00
7824;BME280;3957;48.61947800;9.05303100;2024-02-21T03:05:51;96778.97;;;3.53;100.00
7824;BME280;3957;48.61947800;9.05303100;2024-02-21T03:06:53;96771.28;;;3.60;100.00
7824;BME280;3957;48.61947800;9.05303100;2024-02-21T03:07:54;96784.41;;;3.52;100.00
7824;BME280;3957;48.61947800;9.05303100;2024-02-21T03:08:56;96775.34;;;3.54;100.00
7824;BME280;3957;48.61947800;9.05303100;2024-02-21T03:09:58;96773.25;;;3.58;100.00
7824;BME280;3957;48.61947800;9.05303100;2024-02-21T03:10:59;96772.84;;;3.53;100.00
7824;BME280;3957;48.61947800;9.05303100;2024-02-21T03:12:01;96765.06;;;3.51;100.00
7824;BME280;3957;48.61947800;9.05303100;2024-02-21T03:13:06;96776.31;;;3.53;100.00
7824;BME280;3957;48.61947800;9.05303100;2024-02-21T03:14:07;96777.00;;;3.65;100.00
7824;BME280;3957;48.61947800;9.05303100;2024-02-21T03:15:09;96768.78;;;3.58;100.00
7824;BME280;3957;48.61947800;9.05303100;2024-02-21T03:16:11;96770.16;;;3.63;100.00
7824;BME280;3957;48.61947800;9.05303100;2024-02-21T03:17:12;96773.50;;;3.74;100.00
7824;BME280;3957;48.61947800;9.05303100;2024-02-21T03:18:14;96769.28;;;3.82;100.00
7824;BME280;3957;48.61947800;9.05303100;2024-02-21T03:19:15;96780.16;;;3.79;100.00
7824;BME280;3957;48.61947800;9.05303100;2024-02-21T03:20:17;96771.63;;;3.85;100.00
7824;BME280;3957;48.61947800;9.05303100;2024-02-21T03:21:21;96773.16;;;3.87;100.00
7824;BME280;3957;48.61947800;9.05303100;2024-02-21T03:22:22;96764.09;;;3.90;100.00
7824;BME280;3957;48.61947800;9.05303100;2024-02-21T03:23:24;96761.47;;;3.90;100.00
7824;BME280;3957;48.61947800;9.05303100;2024-02-21T03:24:25;96758.06;;;3.98;100.00
7824;BME280;3957;48.61947800;9.05303100;2024-02-21T03:25:27;96754.75;;;3.96;100.00
7824;BME280;3957;48.61947800;9.05303100;2024-02-21T03:26:29;96762.97;;;3.92;100.00
7824;BME280;3957;48.61947800;9.05303100;2024-02-21T03:27:30;96754.38;;;3.81;100.00
7824;BME280;3957;48.61947800;9.05303100;2024-02-21T03:28:32;96755.22;;;3.81;100.00
7824;BME280;3957;48.61947800;9.05303100;2024-02-21T03:29:33;96762.88;;;3.84;100.00
7824;BME280;3957;48.61947800;9.05303100;2024-02-21T03:30:35;96763.16;;;3.81;100.00
7824;BME280;3957;48.61947800;9.05303100;2024-02-21T03:31:37;96759.94;;;3.87;100.00
7824;BME280;3957;48.61947800;9.05303100;2024-02-21T03:32:38;96758.34;;;3.95;100.00
7824;BME280;3957;48.61947800;9.05303100;2024-02-21T03:33:42;96757.25;;;3.97;100.00
7824;BME280;3957;48.61947800;9.05303100;2024-02-21T03:34:44;96751.41;;;3.94;100.00
7824;BME280;3957;48.61947800;9.05303100;2024-02-21T03:35:46;96752.69;;;3.89;100.00
7824;BME280;3957;48.61947800;9.05303100;2024-02-21T03:36:47;96748.63;;;3.95;100.00
7824;BME280;3957;48.61947800;9.05303100;2024-02-21T03:37:49;96753.06;;;3.95;100.00
7824;BME280;3957;48.61947800;9.05303100;2024-02-21T03:38:51;96751.00;;;3.88;100.00
7824;BME280;3957;48.61947800;9.05303100;2024-02-21T03:39:52;96743.75;;;3.90;100.00
7824;BME280;3957;48.61947800;9.05303100;2024-02-21T03:40:54;96749.75;;;3.92;100.00
7824;BME280;3957;48.61947800;9.05303100;2024-02-21T03:41:55;96750.88;;;3.90;100.00
7824;BME280;3957;48.61947800;9.05303100;2024-02-21T03:42:57;96743.75;;;3.90;100.00
7824;BME280;3957;48.61947800;9.05303100;2024-02-21T03:43:59;96748.56;;;4.05;100.00
7824;BME280;3957;48.61947800;9.05303100;2024-02-21T03:45:00;96756.41;;;3.97;100.00
7824;BME280;3957;48.61947800;9.05303100;2024-02-21T03:46:02;96761.25;;;4.01;100.00
7824;BME280;3957;48.61947800;9.05303100;2024-02-21T03:47:04;96758.91;;;3.98;100.00
7824;BME280;3957;48.61947800;9.05303100;2024-02-21T03:48:05;96758.06;;;3.98;100.00
7824;BME280;3957;48.61947800;9.05303100;2024-02-21T03:49:08;96758.50;;;3.93;100.00
7824;BME280;3957;48.61947800;9.05303100;2024-02-21T03:50:09;96758.22;;;3.96;100.00
7824;BME280;3957;48.61947800;9.05303100;2024-02-21T03:51:11;96757.53;;;3.94;100.00
7824;BME280;3957;48.61947800;9.05303100;2024-02-21T03:52:13;96758.75;;;4.00;100.00
7824;BME280;3957;48.61947800;9.05303100;2024-02-21T03:53:14;96762.09;;;4.02;100.00
7824;BME280;3957;48.61947800;9.05303100;2024-02-21T03:54:16;96762.38;;;3.99;100.00
7824;BME280;3957;48.61947800;9.05303100;2024-02-21T03:55:18;96762.84;;;3.94;100.00
7824;BME280;3957;48.61947800;9.05303100;2024-02-21T03:56:19;96757.28;;;3.87;100.00
7824;BME280;3957;48.61947800;9.05303100;2024-02-21T03:57:21;96767.91;;;3.78;100.00
7824;BME280;3957;48.61947800;9.05303100;2024-02-21T03:58:22;96749.81;;;3.73;100.00
7824;BME280;3957;48.61947800;9.05303100;2024-02-21T03:59:24;96752.06;;;3.68;100.00
7824;BME280;3957;48.61947800;9.05303100;2024-02-21T04:00:25;96759.72;;;3.61;100.00
7824;BME280;3957;48.61947800;9.05303100;2024-02-21T04:01:27;96755.41;;;3.60;100.00
7824;BME280;3957;48.61947800;9.05303100;2024-02-21T04:02:28;96754.28;;;3.63;100.00
7824;BME280;3957;48.61947800;9.05303100;2024-02-21T04:03:30;96750.81;;;3.62;100.00
7824;BME280;3957;48.61947800;9.05303100;2024-02-21T04:04:32;96756.13;;;3.62;100.00
7824;BME280;3957;48.61947800;9.05303100;2024-02-21T04:05:34;96752.91;;;3.58;100.00
7824;BME280;3957;48.61947800;9.05303100;2024-02-21T04:06:35;96746.38;;;3.53;100.00
7824;BME280;3957;48.61947800;9.05303100;2024-02-21T04:07:38;96747.19;;;3.63;100.00
7824;BME280;3957;48.61947800;9.05303100;2024-02-21T04:08:39;96739.25;;;3.63;100.00
7824;BME280;3957;48.61947800;9.05303100;2024-02-21T04:09:41;96736.19;;;3.68;100.00
7824;BME280;3957;48.61947800;9.05303100;2024-02-21T04:10:42;96730.31;;;3.64;100.00
7824;BME280;3957;48.61947800;9.05303100;2024-02-21T04:11:44;96735.81;;;3.53;100.00
7824;BME280;3957;48.61947800;9.05303100;2024-02-21T04:12:46;96721.03;;;3.50;100.00
7824;BME280;3957;48.61947800;9.05303100;2024-02-21T04:13:48;96728.56;;;3.55;100.00
7824;BME280;3957;48.61947800;9.05303100;2024-02-21T04:14:51;96726.88;;;3.54;100.00
7824;BME280;3957;48.61947800;9.05303100;2024-02-21T04:15:53;96724.09;;;3.55;100.00
7824;BME280;3957;48.61947800;9.05303100;2024-02-21T04:16:54;96729.66;;;3.62;100.00
7824;BME280;3957;48.61947800;9.05303100;2024-02-21T04:17:56;96722.84;;;3.60;100.00
7824;BME280;3957;48.61947800;9.05303100;2024-02-21T04:18:57;96717.41;;;3.61;100.00
7824;BME280;3957;48.61947800;9.05303100;2024-02-21T04:20:04;96711.00;;;3.54;100.00
7824;BME280;3957;48.61947800;9.05303100;2024-02-21T04:21:08;96713.97;;;3.51;100.00
7824;BME280;3957;48.61947800;9.05303100;2024-02-21T04:22:10;96710.34;;;3.42;100.00
7824;BME280;3957;48.61947800;9.05303100;2024-02-21T04:23:11;96707.69;;;3.42;100.00
7824;BME280;3957;48.61947800;9.05303100;2024-02-21T04:24:13;96710.63;;;3.39;100.00
7824;BME280;3957;48.61947800;9.05303100;2024-02-21T04:25:14;96703.66;;;3.38;100.00
7824;BME280;3957;48.61947800;9.05303100;2024-02-21T04:26:16;96710.22;;;3.34;100.00
7824;BME280;3957;48.61947800;9.05303100;2024-02-21T04:27:18;96715.53;;;3.24;100.00
7824;BME280;3957;48.61947800;9.05303100;2024-02-21T04:28:19;96716.38;;;3.25;100.00
7824;BME280;3957;48.61947800;9.05303100;2024-02-21T04:29:21;96710.94;;;3.36;100.00
7824;BME280;3957;48.61947800;9.05303100;2024-02-21T04:30:22;96718.16;;;3.34;100.00
7824;BME280;3957;48.61947800;9.05303100;2024-02-21T04:31:24;96723.88;;;3.39;100.00
7824;BME280;3957;48.61947800;9.05303100;2024-02-21T04:32:26;96716.06;;;3.37;100.00
7824;BME280;3957;48.61947800;9.05303100;2024-02-21T04:33:28;96710.94;;;3.36;100.00
7824;BME280;3957;48.61947800;9.05303100;2024-02-21T04:34:30;96705.34;;;3.39;100.00
7824;BME280;3957;48.61947800;9.05303100;2024-02-21T04:35:32;96702.59;;;3.31;100.00
7824;BME280;3957;48.61947800;9.05303100;2024-02-21T04:36:33;96699.13;;;3.20;100.00
7824;BME280;3957;48.61947800;9.05303100;2024-02-21T04:37:35;96698.69;;;3.25;100.00
7824;BME280;3957;48.61947800;9.05303100;2024-02-21T04:38:36;96695.22;;;3.34;100.00
7824;BME280;3957;48.61947800;9.05303100;2024-02-21T04:39:40;96693.38;;;3.35;100.00
7824;BME280;3957;48.61947800;9.05303100;2024-02-21T04:40:42;96691.03;;;3.32;100.00
7824;BME280;3957;48.61947800;9.05303100;2024-02-21T04:41:43;96696.97;;;3.44;100.00
7824;BME280;3957;48.61947800;9.05303100;2024-02-21T04:42:45;96695.31;;;3.43;100.00
7824;BME280;3957;48.61947800;9.05303100;2024-02-21T04:43:47;96698.78;;;3.43;100.00
7824;BME280;3957;48.61947800;9.05303100;2024-02-21T04:44:49;96699.91;;;3.40;100.00
7824;BME280;3957;48.61947800;9.05303100;2024-02-21T04:45:51;96697.22;;;3.50;100.00
7824;BME280;3957;48.61947800;9.05303100;2024-02-21T04:46:54;96696.16;;;3.43;100.00
7824;BME280;3957;48.61947800;9.05303100;2024-02-21T04:47:56;96700.63;;;3.43;100.00
7824;BME280;3957;48.61947800;9.05303100;2024-02-21T04:48:58;96693.94;;;3.38;100.00
7824;BME280;3957;48.61947800;9.05303100;2024-02-21T04:49:59;96689.31;;;3.40;100.00
7824;BME280;3957;48.61947800;9.05303100;2024-02-21T04:51:01;96693.81;;;3.30;100.00
7824;BME280;3957;48.61947800;9.05303100;2024-02-21T04:52:03;96694.66;;;3.31;100.00
7824;BME280;3957;48.61947800;9.05303100;2024-02-21T04:53:04;96688.69;;;3.29;100.00
7824;BME280;3957;48.61947800;9.05303100;2024-02-21T04:54:06;96679.22;;;3.26;100.00
7824;BME280;3957;48.61947800;9.05303100;2024-02-21T04:55:08;96690.34;;;3.20;100.00
7824;BME280;3957;48.61947800;9.05303100;2024-02-21T04:56:09;96685.09;;;3.10;100.00